sensor_id;sensor_type;location;lat;lon;timestamp;P1;durP1;ratioP1;P2;durP2;ratioP2
8562;SDS011;16392;52.508;13.468;2022-12-18T00:01:00;281.67;;;57.33;;
8562;SDS011;16392;52.508;13.468;2022-12-18T00:03:31;285.50;;;63.50;;
8562;SDS011;16392;52.508;13.468;2022-12-18T00:05:58;285.10;;;59.20;;
8562;SDS011;16392;52.508;13.468;2022-12-18T00:08:24;287.40;;;62.07;;
8562;SDS011;16392;52.508;13.468;2022-12-18T00:10:51;288.17;;;64.03;;
8562;SDS011;16392;52.508;13.468;2022-12-18T00:13:17;284.77;;;58.97;;
8562;SDS011;16392;52.508;13.468;2022-12-18T00:15:45;285.60;;;59.53;;
8562;SDS011;16392;52.508;13.468;2022-12-18T00:18:12;284.80;;;62.67;;
8562;SDS011;16392;52.508;13.468;2022-12-18T00:20:39;285.33;;;58.83;;
8562;SDS011;16392;52.508;13.468;2022-12-18T00:23:06;286.23;;;61.73;;
8562;SDS011;16392;52.508;13.468;2022-12-18T00:25:33;284.87;;;60.27;;
8562;SDS011;16392;52.508;13.468;2022-12-18T00:28:00;285.10;;;63.17;;
8562;SDS011;16392;52.508;13.468;2022-12-18T00:30:27;285.70;;;63.33;;
8562;SDS011;16392;52.508;13.468;2022-12-18T00:32:55;280.67;;;57.93;;
8562;SDS011;16392;52.508;13.468;2022-12-18T00:35:21;281.10;;;58.67;;
8562;SDS011;16392;52.508;13.468;2022-12-18T00:37:48;281.33;;;56.97;;
8562;SDS011;16392;52.508;13.468;2022-12-18T00:40:15;281.83;;;58.67;;
8562;SDS011;16392;52.508;13.468;2022-12-18T00:42:42;282.37;;;59.07;;
8562;SDS011;16392;52.508;13.468;2022-12-18T00:45:23;281.40;;;59.67;;
8562;SDS011;16392;52.508;13.468;2022-12-18T00:47:50;282.27;;;62.10;;
8562;SDS011;16392;52.508;13.468;2022-12-18T00:50:18;280.37;;;58.67;;
8562;SDS011;16392;52.508;13.468;2022-12-18T00:52:46;277.53;;;58.13;;
8562;SDS011;16392;52.508;13.468;2022-12-18T00:55:13;277.00;;;58.90;;
8562;SDS011;16392;52.508;13.468;2022-12-18T00:57:40;275.67;;;56.97;;
8562;SDS011;16392;52.508;13.468;2022-12-18T01:00:08;285.83;;;64.63;;
8562;SDS011;16392;52.508;13.468;2022-12-18T01:02:36;278.87;;;59.17;;
8562;SDS011;16392;52.508;13.468;2022-12-18T01:05:03;278.50;;;59.90;;
8562;SDS011;16392;52.508;13.468;2022-12-18T01:07:33;275.93;;;57.30;;
8562;SDS011;16392;52.508;13.468;2022-12-18T01:09:59;277.67;;;56.17;;
8562;SDS011;16392;52.508;13.468;2022-12-18T01:12:26;277.67;;;60.57;;
8562;SDS011;16392;52.508;13.468;2022-12-18T01:14:52;275.37;;;56.17;;
8562;SDS011;16392;52.508;13.468;2022-12-18T01:17:19;276.43;;;56.30;;
8562;SDS011;16392;52.508;13.468;2022-12-18T01:19:46;278.43;;;57.60;;
8562;SDS011;16392;52.508;13.468;2022-12-18T01:22:12;281.80;;;61.90;;
8562;SDS011;16392;52.508;13.468;2022-12-18T01:24:40;283.30;;;60.93;;
8562;SDS011;16392;52.508;13.468;2022-12-18T01:27:07;218.37;;;48.30;;
8562;SDS011;16392;52.508;13.468;2022-12-18T01:29:34;275.13;;;59.93;;
8562;SDS011;16392;52.508;13.468;2022-12-18T01:32:00;276.97;;;58.87;;
8562;SDS011;16392;52.508;13.468;2022-12-18T01:34:27;280.20;;;61.40;;
8562;SDS011;16392;52.508;13.468;2022-12-18T01:36:54;278.40;;;61.43;;
8562;SDS011;16392;52.508;13.468;2022-12-18T01:39:20;275.63;;;59.87;;
8562;SDS011;16392;52.508;13.468;2022-12-18T01:41:48;290.70;;;59.30;;
8562;SDS011;16392;52.508;13.468;2022-12-18T01:47:26;276.60;;;62.50;;
8562;SDS011;16392;52.508;13.468;2022-12-18T01:49:56;273.40;;;57.17;;
8562;SDS011;16392;52.508;13.468;2022-12-18T01:52:27;278.13;;;62.00;;
8562;SDS011;16392;52.508;13.468;2022-12-18T01:54:57;277.00;;;58.00;;
8562;SDS011;16392;52.508;13.468;2022-12-18T01:57:26;277.10;;;58.87;;
8562;SDS011;16392;52.508;13.468;2022-12-18T01:59:53;277.03;;;63.27;;
8562;SDS011;16392;52.508;13.468;2022-12-18T02:02:25;274.93;;;61.90;;
8562;SDS011;16392;52.508;13.468;2022-12-18T02:04:53;277.40;;;57.60;;
8562;SDS011;16392;52.508;13.468;2022-12-18T02:07:24;280.80;;;63.10;;
8562;SDS011;16392;52.508;13.468;2022-12-18T02:09:57;275.07;;;56.80;;
8562;SDS011;16392;52.508;13.468;2022-12-18T02:12:30;275.00;;;57.63;;
8562;SDS011;16392;52.508;13.468;2022-12-18T02:15:05;277.43;;;59.80;;
8562;SDS011;16392;52.508;13.468;2022-12-18T02:17:40;275.37;;;59.50;;
8562;SDS011;16392;52.508;13.468;2022-12-18T02:20:12;276.00;;;58.07;;
8562;SDS011;16392;52.508;13.468;2022-12-18T02:22:46;280.57;;;60.70;;
8562;SDS011;16392;52.508;13.468;2022-12-18T02:25:29;278.47;;;61.60;;
8562;SDS011;16392;52.508;13.468;2022-12-18T02:28:09;279.80;;;64.27;;
8562;SDS011;16392;52.508;13.468;2022-12-18T02:30:41;275.77;;;56.03;;
8562;SDS011;16392;52.508;13.468;2022-12-18T02:33:09;278.17;;;62.07;;
8562;SDS011;16392;52.508;13.468;2022-12-18T02:35:38;283.77;;;62.17;;
8562;SDS011;16392;52.508;13.468;2022-12-18T02:38:06;275.90;;;57.57;;
8562;SDS011;16392;52.508;13.468;2022-12-18T02:40:33;276.40;;;57.17;;
8562;SDS011;16392;52.508;13.468;2022-12-18T02:43:02;285.67;;;60.43;;
8562;SDS011;16392;52.508;13.468;2022-12-18T02:45:34;277.93;;;60.93;;
8562;SDS011;16392;52.508;13.468;2022-12-18T02:48:01;281.93;;;57.50;;
8562;SDS011;16392;52.508;13.468;2022-12-18T02:50:29;276.27;;;57.20;;
8562;SDS011;16392;52.508;13.468;2022-12-18T02:53:02;277.63;;;59.03;;
8562;SDS011;16392;52.508;13.468;2022-12-18T02:55:39;279.97;;;61.30;;
8562;SDS011;16392;52.508;13.468;2022-12-18T02:58:15;278.90;;;60.17;;
8562;SDS011;16392;52.508;13.468;2022-12-18T03:00:47;276.83;;;59.73;;
8562;SDS011;16392;52.508;13.468;2022-12-18T03:03:19;280.70;;;60.90;;
8562;SDS011;16392;52.508;13.468;2022-12-18T03:05:50;272.77;;;57.80;;
8562;SDS011;16392;52.508;13.468;2022-12-18T03:08:20;274.80;;;57.57;;
8562;SDS011;16392;52.508;13.468;2022-12-18T03:10:49;274.97;;;59.00;;
8562;SDS011;16392;52.508;13.468;2022-12-18T03:13:23;277.87;;;61.40;;
8562;SDS011;16392;52.508;13.468;2022-12-18T03:15:57;274.83;;;60.77;;
8562;SDS011;16392;52.508;13.468;2022-12-18T03:18:27;276.80;;;57.90;;
8562;SDS011;16392;52.508;13.468;2022-12-18T03:20:59;280.73;;;59.47;;
8562;SDS011;16392;52.508;13.468;2022-12-18T03:23:29;275.43;;;61.33;;
8562;SDS011;16392;52.508;13.468;2022-12-18T03:26:01;274.37;;;56.30;;
8562;SDS011;16392;52.508;13.468;2022-12-18T03:28:44;277.33;;;58.23;;
8562;SDS011;16392;52.508;13.468;2022-12-18T03:31:13;274.70;;;59.83;;
8562;SDS011;16392;52.508;13.468;2022-12-18T03:33:41;271.23;;;58.67;;
8562;SDS011;16392;52.508;13.468;2022-12-18T03:36:11;281.77;;;62.67;;
8562;SDS011;16392;52.508;13.468;2022-12-18T03:38:38;276.43;;;60.77;;
8562;SDS011;16392;52.508;13.468;2022-12-18T03:41:06;277.10;;;59.27;;
8562;SDS011;16392;52.508;13.468;2022-12-18T03:43:43;272.97;;;59.30;;
8562;SDS011;16392;52.508;13.468;2022-12-18T03:46:17;276.10;;;65.40;;
8562;SDS011;16392;52.508;13.468;2022-12-18T03:48:52;288.77;;;59.73;;
8562;SDS011;16392;52.508;13.468;2022-12-18T03:51:26;277.20;;;61.63;;
8562;SDS011;16392;52.508;13.468;2022-12-18T03:53:57;273.37;;;59.03;;
8562;SDS011;16392;52.508;13.468;2022-12-18T03:56:26;272.67;;;59.70;;
8562;SDS011;16392;52.508;13.468;2022-12-18T03:58:57;274.07;;;59.03;;
8562;SDS011;16392;52.508;13.468;2022-12-18T04:01:28;278.67;;;58.67;;
8562;SDS011;16392;52.508;13.468;2022-12-18T04:03:58;281.60;;;58.20;;
8562;SDS011;16392;52.508;13.468;2022-12-18T04:06:26;288.13;;;63.97;;
8562;SDS011;16392;52.508;13.468;2022-12-18T04:08:54;282.37;;;61.67;;
8562;SDS011;16392;52.508;13.468;2022-12-18T04:11:22;271.43;;;57.50;;
8562;SDS011;16392;52.508;13.468;2022-12-18T04:13:49;277.83;;;58.70;;
8562;SDS011;16392;52.508;13.468;2022-12-18T04:16:17;275.60;;;59.17;;
8562;SDS011;16392;52.508;13.468;2022-12-18T04:18:43;274.90;;;61.07;;
8562;SDS011;16392;52.508;13.468;2022-12-18T04:21:10;277.30;;;59.17;;
8562;SDS011;16392;52.508;13.468;2022-12-18T04:23:36;268.20;;;59.60;;
8562;SDS011;16392;52.508;13.468;2022-12-18T04:26:03;268.10;;;57.77;;
8562;SDS011;16392;52.508;13.468;2022-12-18T04:28:30;273.13;;;62.87;;
8562;SDS011;16392;52.508;13.468;2022-12-18T04:30:56;271.87;;;59.03;;
8562;SDS011;16392;52.508;13.468;2022-12-18T04:33:24;269.00;;;56.50;;
8562;SDS011;16392;52.508;13.468;2022-12-18T04:35:51;270.80;;;59.23;;
8562;SDS011;16392;52.508;13.468;2022-12-18T04:38:18;270.90;;;57.93;;
8562;SDS011;16392;52.508;13.468;2022-12-18T04:40:45;278.33;;;68.27;;
8562;SDS011;16392;52.508;13.468;2022-12-18T04:43:11;272.00;;;62.43;;
8562;SDS011;16392;52.508;13.468;2022-12-18T04:45:38;272.43;;;59.33;;
8562;SDS011;16392;52.508;13.468;2022-12-18T04:48:05;270.70;;;58.37;;
8562;SDS011;16392;52.508;13.468;2022-12-18T04:50:33;269.77;;;57.07;;
8562;SDS011;16392;52.508;13.468;2022-12-18T04:52:59;267.77;;;56.07;;
8562;SDS011;16392;52.508;13.468;2022-12-18T04:55:26;269.23;;;60.03;;
8562;SDS011;16392;52.508;13.468;2022-12-18T04:57:53;271.87;;;58.77;;
8562;SDS011;16392;52.508;13.468;2022-12-18T05:00:20;274.23;;;68.17;;
8562;SDS011;16392;52.508;13.468;2022-12-18T05:02:48;267.00;;;56.27;;
8562;SDS011;16392;52.508;13.468;2022-12-18T05:05:14;270.63;;;62.60;;
8562;SDS011;16392;52.508;13.468;2022-12-18T05:07:42;274.10;;;58.57;;
8562;SDS011;16392;52.508;13.468;2022-12-18T05:10:09;264.23;;;55.67;;
8562;SDS011;16392;52.508;13.468;2022-12-18T05:12:36;268.63;;;60.87;;
8562;SDS011;16392;52.508;13.468;2022-12-18T05:15:23;268.77;;;56.97;;
8562;SDS011;16392;52.508;13.468;2022-12-18T05:17:50;271.10;;;57.30;;
8562;SDS011;16392;52.508;13.468;2022-12-18T05:20:16;269.53;;;61.23;;
8562;SDS011;16392;52.508;13.468;2022-12-18T05:22:45;274.37;;;57.80;;
8562;SDS011;16392;52.508;13.468;2022-12-18T05:25:12;272.20;;;58.70;;
8562;SDS011;16392;52.508;13.468;2022-12-18T05:27:38;271.53;;;58.60;;
8562;SDS011;16392;52.508;13.468;2022-12-18T05:30:06;272.53;;;57.77;;
8562;SDS011;16392;52.508;13.468;2022-12-18T05:32:33;269.13;;;56.30;;
8562;SDS011;16392;52.508;13.468;2022-12-18T05:35:00;272.17;;;56.47;;
8562;SDS011;16392;52.508;13.468;2022-12-18T05:37:27;274.20;;;60.07;;
8562;SDS011;16392;52.508;13.468;2022-12-18T05:39:55;272.83;;;57.70;;
8562;SDS011;16392;52.508;13.468;2022-12-18T05:42:21;278.27;;;56.50;;
8562;SDS011;16392;52.508;13.468;2022-12-18T05:44:48;273.07;;;57.10;;
8562;SDS011;16392;52.508;13.468;2022-12-18T05:47:15;274.43;;;58.73;;
8562;SDS011;16392;52.508;13.468;2022-12-18T05:49:41;276.10;;;56.80;;
8562;SDS011;16392;52.508;13.468;2022-12-18T05:52:08;272.37;;;55.70;;
8562;SDS011;16392;52.508;13.468;2022-12-18T05:54:35;272.43;;;57.13;;
8562;SDS011;16392;52.508;13.468;2022-12-18T05:57:03;276.90;;;58.90;;
8562;SDS011;16392;52.508;13.468;2022-12-18T05:59:29;275.47;;;59.50;;
8562;SDS011;16392;52.508;13.468;2022-12-18T06:01:56;280.27;;;65.53;;
8562;SDS011;16392;52.508;13.468;2022-12-18T06:04:23;277.20;;;60.27;;
8562;SDS011;16392;52.508;13.468;2022-12-18T06:06:49;275.17;;;60.47;;
8562;SDS011;16392;52.508;13.468;2022-12-18T06:09:16;271.87;;;56.90;;
8562;SDS011;16392;52.508;13.468;2022-12-18T06:11:43;279.50;;;62.07;;
8562;SDS011;16392;52.508;13.468;2022-12-18T06:14:11;275.20;;;61.60;;
8562;SDS011;16392;52.508;13.468;2022-12-18T06:16:37;275.30;;;60.57;;
8562;SDS011;16392;52.508;13.468;2022-12-18T06:19:05;282.67;;;75.73;;
8562;SDS011;16392;52.508;13.468;2022-12-18T06:21:32;273.40;;;57.60;;
8562;SDS011;16392;52.508;13.468;2022-12-18T06:23:59;274.77;;;61.53;;
8562;SDS011;16392;52.508;13.468;2022-12-18T06:26:26;272.13;;;57.57;;
8562;SDS011;16392;52.508;13.468;2022-12-18T06:28:53;279.63;;;65.30;;
8562;SDS011;16392;52.508;13.468;2022-12-18T06:31:21;275.07;;;61.87;;
8562;SDS011;16392;52.508;13.468;2022-12-18T06:33:48;272.57;;;58.27;;
8562;SDS011;16392;52.508;13.468;2022-12-18T06:36:15;274.63;;;59.73;;
8562;SDS011;16392;52.508;13.468;2022-12-18T06:38:42;274.13;;;58.87;;
8562;SDS011;16392;52.508;13.468;2022-12-18T06:41:10;273.43;;;59.87;;
8562;SDS011;16392;52.508;13.468;2022-12-18T06:43:38;273.80;;;60.40;;
8562;SDS011;16392;52.508;13.468;2022-12-18T06:46:05;278.03;;;61.70;;
8562;SDS011;16392;52.508;13.468;2022-12-18T06:48:33;280.10;;;62.47;;
8562;SDS011;16392;52.508;13.468;2022-12-18T06:51:00;274.67;;;63.13;;
8562;SDS011;16392;52.508;13.468;2022-12-18T06:53:28;275.37;;;64.07;;
8562;SDS011;16392;52.508;13.468;2022-12-18T06:55:59;270.00;;;60.77;;
8562;SDS011;16392;52.508;13.468;2022-12-18T06:58:26;274.00;;;59.10;;
8562;SDS011;16392;52.508;13.468;2022-12-18T07:00:53;273.63;;;63.83;;
8562;SDS011;16392;52.508;13.468;2022-12-18T07:03:19;272.83;;;62.67;;
8562;SDS011;16392;52.508;13.468;2022-12-18T07:05:47;272.10;;;60.90;;
8562;SDS011;16392;52.508;13.468;2022-12-18T07:08:14;270.07;;;56.70;;
8562;SDS011;16392;52.508;13.468;2022-12-18T07:10:41;273.40;;;63.80;;
8562;SDS011;16392;52.508;13.468;2022-12-18T07:13:08;274.90;;;57.87;;
8562;SDS011;16392;52.508;13.468;2022-12-18T07:15:35;276.83;;;62.23;;
8562;SDS011;16392;52.508;13.468;2022-12-18T07:18:02;272.40;;;55.97;;
8562;SDS011;16392;52.508;13.468;2022-12-18T07:20:29;274.53;;;58.47;;
8562;SDS011;16392;52.508;13.468;2022-12-18T07:22:57;276.63;;;58.70;;
8562;SDS011;16392;52.508;13.468;2022-12-18T07:25:24;283.63;;;63.30;;
8562;SDS011;16392;52.508;13.468;2022-12-18T07:27:50;287.93;;;68.10;;
8562;SDS011;16392;52.508;13.468;2022-12-18T07:30:17;275.13;;;57.63;;
8562;SDS011;16392;52.508;13.468;2022-12-18T07:32:44;272.43;;;56.87;;
8562;SDS011;16392;52.508;13.468;2022-12-18T07:35:10;276.33;;;59.93;;
8562;SDS011;16392;52.508;13.468;2022-12-18T07:37:37;272.17;;;59.03;;
8562;SDS011;16392;52.508;13.468;2022-12-18T07:40:07;274.40;;;58.97;;
8562;SDS011;16392;52.508;13.468;2022-12-18T07:42:34;274.60;;;59.40;;
8562;SDS011;16392;52.508;13.468;2022-12-18T07:45:02;275.50;;;58.93;;
8562;SDS011;16392;52.508;13.468;2022-12-18T07:47:34;276.87;;;57.67;;
8562;SDS011;16392;52.508;13.468;2022-12-18T07:50:03;276.00;;;62.93;;
8562;SDS011;16392;52.508;13.468;2022-12-18T07:52:31;276.83;;;58.03;;
8562;SDS011;16392;52.508;13.468;2022-12-18T07:54:57;281.33;;;62.77;;
8562;SDS011;16392;52.508;13.468;2022-12-18T07:57:25;278.50;;;60.77;;
8562;SDS011;16392;52.508;13.468;2022-12-18T07:59:52;286.70;;;71.57;;
8562;SDS011;16392;52.508;13.468;2022-12-18T08:02:19;278.30;;;60.70;;
8562;SDS011;16392;52.508;13.468;2022-12-18T08:04:45;278.33;;;59.57;;
8562;SDS011;16392;52.508;13.468;2022-12-18T08:07:12;272.13;;;55.73;;
8562;SDS011;16392;52.508;13.468;2022-12-18T08:09:39;273.13;;;56.23;;
8562;SDS011;16392;52.508;13.468;2022-12-18T08:12:05;274.07;;;57.40;;
8562;SDS011;16392;52.508;13.468;2022-12-18T08:14:33;277.57;;;62.50;;
8562;SDS011;16392;52.508;13.468;2022-12-18T08:17:00;278.33;;;61.17;;
8562;SDS011;16392;52.508;13.468;2022-12-18T08:19:27;276.50;;;58.57;;
8562;SDS011;16392;52.508;13.468;2022-12-18T08:21:53;275.90;;;59.47;;
8562;SDS011;16392;52.508;13.468;2022-12-18T08:24:20;277.87;;;60.07;;
8562;SDS011;16392;52.508;13.468;2022-12-18T08:26:47;282.37;;;66.03;;
8562;SDS011;16392;52.508;13.468;2022-12-18T08:29:13;277.53;;;61.23;;
8562;SDS011;16392;52.508;13.468;2022-12-18T08:31:41;277.00;;;56.13;;
8562;SDS011;16392;52.508;13.468;2022-12-18T08:34:08;276.10;;;56.83;;
8562;SDS011;16392;52.508;13.468;2022-12-18T08:36:35;282.50;;;63.60;;
8562;SDS011;16392;52.508;13.468;2022-12-18T08:39:02;279.17;;;59.77;;
8562;SDS011;16392;52.508;13.468;2022-12-18T08:41:28;281.30;;;63.80;;
8562;SDS011;16392;52.508;13.468;2022-12-18T08:43:55;299.80;;;62.43;;
8562;SDS011;16392;52.508;13.468;2022-12-18T08:46:40;278.30;;;59.43;;
8562;SDS011;16392;52.508;13.468;2022-12-18T08:49:09;277.30;;;58.73;;
8562;SDS011;16392;52.508;13.468;2022-12-18T08:51:37;276.93;;;58.03;;
8562;SDS011;16392;52.508;13.468;2022-12-18T08:54:05;277.67;;;58.50;;
8562;SDS011;16392;52.508;13.468;2022-12-18T08:56:32;278.27;;;58.93;;
8562;SDS011;16392;52.508;13.468;2022-12-18T08:58:59;279.77;;;60.27;;
8562;SDS011;16392;52.508;13.468;2022-12-18T09:01:26;279.83;;;61.63;;
8562;SDS011;16392;52.508;13.468;2022-12-18T09:03:54;283.33;;;63.73;;
8562;SDS011;16392;52.508;13.468;2022-12-18T09:06:21;281.07;;;62.83;;
8562;SDS011;16392;52.508;13.468;2022-12-18T09:08:49;284.63;;;61.53;;
8562;SDS011;16392;52.508;13.468;2022-12-18T09:11:18;283.13;;;68.10;;
8562;SDS011;16392;52.508;13.468;2022-12-18T09:13:46;283.87;;;65.40;;
8562;SDS011;16392;52.508;13.468;2022-12-18T09:16:13;286.17;;;62.90;;
8562;SDS011;16392;52.508;13.468;2022-12-18T09:18:40;285.33;;;61.83;;
8562;SDS011;16392;52.508;13.468;2022-12-18T09:21:08;283.33;;;58.43;;
8562;SDS011;16392;52.508;13.468;2022-12-18T09:23:37;286.57;;;65.27;;
8562;SDS011;16392;52.508;13.468;2022-12-18T09:26:03;289.07;;;62.27;;
8562;SDS011;16392;52.508;13.468;2022-12-18T09:28:30;289.93;;;64.00;;
8562;SDS011;16392;52.508;13.468;2022-12-18T09:30:57;289.00;;;61.90;;
8562;SDS011;16392;52.508;13.468;2022-12-18T09:33:24;289.40;;;61.93;;
8562;SDS011;16392;52.508;13.468;2022-12-18T09:35:50;290.33;;;64.07;;
8562;SDS011;16392;52.508;13.468;2022-12-18T09:38:19;286.67;;;59.87;;
8562;SDS011;16392;52.508;13.468;2022-12-18T09:40:47;290.97;;;64.10;;
8562;SDS011;16392;52.508;13.468;2022-12-18T09:43:17;290.50;;;61.87;;
8562;SDS011;16392;52.508;13.468;2022-12-18T09:45:46;288.00;;;58.60;;
8562;SDS011;16392;52.508;13.468;2022-12-18T09:48:19;290.97;;;59.77;;
8562;SDS011;16392;52.508;13.468;2022-12-18T09:50:50;290.80;;;59.17;;
8562;SDS011;16392;52.508;13.468;2022-12-18T09:56:12;292.93;;;67.13;;
8562;SDS011;16392;52.508;13.468;2022-12-18T09:58:48;293.33;;;61.93;;
8562;SDS011;16392;52.508;13.468;2022-12-18T10:01:21;299.23;;;67.40;;
8562;SDS011;16392;52.508;13.468;2022-12-18T10:03:49;299.77;;;69.47;;
8562;SDS011;16392;52.508;13.468;2022-12-18T10:06:18;289.27;;;58.07;;
8562;SDS011;16392;52.508;13.468;2022-12-18T10:08:53;300.97;;;68.17;;
8562;SDS011;16392;52.508;13.468;2022-12-18T10:11:29;295.23;;;63.57;;
8562;SDS011;16392;52.508;13.468;2022-12-18T10:14:07;299.70;;;62.43;;
8562;SDS011;16392;52.508;13.468;2022-12-18T10:16:42;298.23;;;63.37;;
8562;SDS011;16392;52.508;13.468;2022-12-18T10:19:23;304.40;;;63.13;;
8562;SDS011;16392;52.508;13.468;2022-12-18T10:22:01;293.97;;;56.93;;
8562;SDS011;16392;52.508;13.468;2022-12-18T10:24:39;295.23;;;60.30;;
8562;SDS011;16392;52.508;13.468;2022-12-18T10:27:13;294.97;;;59.00;;
8562;SDS011;16392;52.508;13.468;2022-12-18T10:29:42;299.07;;;59.87;;
8562;SDS011;16392;52.508;13.468;2022-12-18T10:32:12;296.67;;;58.80;;
8562;SDS011;16392;52.508;13.468;2022-12-18T10:34:45;309.87;;;79.17;;
8562;SDS011;16392;52.508;13.468;2022-12-18T10:37:13;294.63;;;60.03;;
8562;SDS011;16392;52.508;13.468;2022-12-18T10:39:45;296.67;;;59.13;;
8562;SDS011;16392;52.508;13.468;2022-12-18T10:42:15;297.57;;;63.17;;
8562;SDS011;16392;52.508;13.468;2022-12-18T10:44:44;297.07;;;62.23;;
8562;SDS011;16392;52.508;13.468;2022-12-18T10:47:12;296.30;;;66.40;;
8562;SDS011;16392;52.508;13.468;2022-12-18T10:49:42;301.43;;;65.67;;
8562;SDS011;16392;52.508;13.468;2022-12-18T10:52:14;298.43;;;64.27;;
8562;SDS011;16392;52.508;13.468;2022-12-18T10:54:48;294.10;;;60.27;;
8562;SDS011;16392;52.508;13.468;2022-12-18T10:57:17;296.30;;;60.43;;
8562;SDS011;16392;52.508;13.468;2022-12-18T10:59:56;306.63;;;66.93;;
8562;SDS011;16392;52.508;13.468;2022-12-18T11:02:26;306.27;;;60.13;;
8562;SDS011;16392;52.508;13.468;2022-12-18T11:04:59;293.50;;;60.17;;
8562;SDS011;16392;52.508;13.468;2022-12-18T11:07:29;298.87;;;60.17;;
8562;SDS011;16392;52.508;13.468;2022-12-18T11:10:16;299.53;;;66.63;;
8562;SDS011;16392;52.508;13.468;2022-12-18T11:12:44;297.93;;;62.13;;
8562;SDS011;16392;52.508;13.468;2022-12-18T11:15:13;296.30;;;61.37;;
8562;SDS011;16392;52.508;13.468;2022-12-18T11:17:42;291.77;;;58.23;;
8562;SDS011;16392;52.508;13.468;2022-12-18T11:20:19;291.33;;;57.90;;
8562;SDS011;16392;52.508;13.468;2022-12-18T11:22:54;294.07;;;58.53;;
8562;SDS011;16392;52.508;13.468;2022-12-18T11:25:24;304.27;;;70.30;;
8562;SDS011;16392;52.508;13.468;2022-12-18T11:27:55;301.07;;;62.93;;
8562;SDS011;16392;52.508;13.468;2022-12-18T11:30:24;307.77;;;84.10;;
8562;SDS011;16392;52.508;13.468;2022-12-18T11:32:55;294.77;;;57.53;;
8562;SDS011;16392;52.508;13.468;2022-12-18T11:35:30;302.93;;;65.63;;
8562;SDS011;16392;52.508;13.468;2022-12-18T11:38:04;297.10;;;57.17;;
8562;SDS011;16392;52.508;13.468;2022-12-18T11:40:40;297.03;;;59.10;;
8562;SDS011;16392;52.508;13.468;2022-12-18T11:43:12;305.47;;;61.40;;
8562;SDS011;16392;52.508;13.468;2022-12-18T11:45:43;304.27;;;69.87;;
8562;SDS011;16392;52.508;13.468;2022-12-18T11:48:16;309.67;;;62.60;;
8562;SDS011;16392;52.508;13.468;2022-12-18T11:50:48;309.03;;;66.00;;
8562;SDS011;16392;52.508;13.468;2022-12-18T11:53:17;298.80;;;60.07;;
8562;SDS011;16392;52.508;13.468;2022-12-18T11:55:49;298.23;;;66.53;;
8562;SDS011;16392;52.508;13.468;2022-12-18T11:58:38;305.50;;;63.90;;
8562;SDS011;16392;52.508;13.468;2022-12-18T12:01:13;289.97;;;59.07;;
8562;SDS011;16392;52.508;13.468;2022-12-18T12:06:46;295.83;;;62.50;;
8562;SDS011;16392;52.508;13.468;2022-12-18T12:09:21;294.03;;;61.70;;
8562;SDS011;16392;52.508;13.468;2022-12-18T12:12:01;290.83;;;59.87;;
8562;SDS011;16392;52.508;13.468;2022-12-18T12:14:43;296.40;;;61.43;;
8562;SDS011;16392;52.508;13.468;2022-12-18T12:17:18;294.10;;;61.00;;
8562;SDS011;16392;52.508;13.468;2022-12-18T12:19:55;297.40;;;61.93;;
8562;SDS011;16392;52.508;13.468;2022-12-18T12:22:29;295.13;;;58.10;;
8562;SDS011;16392;52.508;13.468;2022-12-18T12:25:09;301.10;;;61.83;;
8562;SDS011;16392;52.508;13.468;2022-12-18T12:27:58;294.43;;;56.70;;
8562;SDS011;16392;52.508;13.468;2022-12-18T12:30:35;298.47;;;57.53;;
8562;SDS011;16392;52.508;13.468;2022-12-18T12:33:13;298.13;;;59.60;;
8562;SDS011;16392;52.508;13.468;2022-12-18T12:35:50;301.63;;;64.87;;
8562;SDS011;16392;52.508;13.468;2022-12-18T12:38:25;297.20;;;61.07;;
8562;SDS011;16392;52.508;13.468;2022-12-18T12:40:56;304.23;;;60.20;;
8562;SDS011;16392;52.508;13.468;2022-12-18T12:43:32;297.70;;;59.20;;
8562;SDS011;16392;52.508;13.468;2022-12-18T12:46:04;297.27;;;61.00;;
8562;SDS011;16392;52.508;13.468;2022-12-18T12:48:36;303.80;;;63.93;;
8562;SDS011;16392;52.508;13.468;2022-12-18T12:51:08;300.13;;;60.27;;
8562;SDS011;16392;52.508;13.468;2022-12-18T12:53:38;307.13;;;61.73;;
8562;SDS011;16392;52.508;13.468;2022-12-18T12:56:06;302.20;;;66.83;;
8562;SDS011;16392;52.508;13.468;2022-12-18T12:58:40;297.93;;;58.60;;
8562;SDS011;16392;52.508;13.468;2022-12-18T13:01:16;301.77;;;57.47;;
8562;SDS011;16392;52.508;13.468;2022-12-18T13:03:57;303.77;;;63.83;;
8562;SDS011;16392;52.508;13.468;2022-12-18T13:06:37;305.87;;;67.07;;
8562;SDS011;16392;52.508;13.468;2022-12-18T13:09:10;303.50;;;60.70;;
8562;SDS011;16392;52.508;13.468;2022-12-18T13:11:38;307.70;;;63.53;;
8562;SDS011;16392;52.508;13.468;2022-12-18T13:14:28;302.03;;;65.23;;
8562;SDS011;16392;52.508;13.468;2022-12-18T13:17:16;298.23;;;59.73;;
8562;SDS011;16392;52.508;13.468;2022-12-18T13:20:02;301.97;;;60.83;;
8562;SDS011;16392;52.508;13.468;2022-12-18T13:22:34;304.00;;;65.43;;
8562;SDS011;16392;52.508;13.468;2022-12-18T13:25:02;304.17;;;65.07;;
8562;SDS011;16392;52.508;13.468;2022-12-18T13:27:56;300.57;;;58.00;;
8562;SDS011;16392;52.508;13.468;2022-12-18T13:36:11;301.73;;;61.37;;
8562;SDS011;16392;52.508;13.468;2022-12-18T13:38:40;303.17;;;61.07;;
8562;SDS011;16392;52.508;13.468;2022-12-18T13:41:21;325.50;;;70.80;;
8562;SDS011;16392;52.508;13.468;2022-12-18T13:43:51;301.63;;;60.50;;
8562;SDS011;16392;52.508;13.468;2022-12-18T13:46:21;303.37;;;62.87;;
8562;SDS011;16392;52.508;13.468;2022-12-18T13:48:52;303.37;;;62.53;;
8562;SDS011;16392;52.508;13.468;2022-12-18T13:51:23;305.50;;;64.20;;
8562;SDS011;16392;52.508;13.468;2022-12-18T13:53:51;302.17;;;63.80;;
8562;SDS011;16392;52.508;13.468;2022-12-18T13:56:21;301.93;;;65.97;;
8562;SDS011;16392;52.508;13.468;2022-12-18T13:59:04;306.43;;;65.80;;
8562;SDS011;16392;52.508;13.468;2022-12-18T14:01:40;306.17;;;65.00;;
8562;SDS011;16392;52.508;13.468;2022-12-18T14:04:08;337.13;;;72.07;;
8562;SDS011;16392;52.508;13.468;2022-12-18T14:06:36;298.97;;;58.60;;
8562;SDS011;16392;52.508;13.468;2022-12-18T14:09:03;304.27;;;67.63;;
8562;SDS011;16392;52.508;13.468;2022-12-18T14:11:29;309.57;;;64.37;;
8562;SDS011;16392;52.508;13.468;2022-12-18T14:13:56;296.37;;;61.43;;
8562;SDS011;16392;52.508;13.468;2022-12-18T14:16:23;298.77;;;62.37;;
8562;SDS011;16392;52.508;13.468;2022-12-18T14:18:52;303.00;;;65.67;;
8562;SDS011;16392;52.508;13.468;2022-12-18T14:21:21;303.57;;;64.43;;
8562;SDS011;16392;52.508;13.468;2022-12-18T14:24:02;301.13;;;62.20;;
8562;SDS011;16392;52.508;13.468;2022-12-18T14:26:31;299.77;;;64.97;;
8562;SDS011;16392;52.508;13.468;2022-12-18T14:28:59;308.73;;;64.37;;
8562;SDS011;16392;52.508;13.468;2022-12-18T14:31:28;299.40;;;60.40;;
8562;SDS011;16392;52.508;13.468;2022-12-18T14:33:57;301.93;;;65.40;;
8562;SDS011;16392;52.508;13.468;2022-12-18T14:36:24;296.13;;;62.30;;
8562;SDS011;16392;52.508;13.468;2022-12-18T14:38:52;304.50;;;64.93;;